sensor_id;sensor_type;location;lat;lon;timestamp;pressure;altitude;pressure_sealevel;temperature;humidity
59767;BME280;46248;58.364;25.582;2023-03-01T00:01:06;101256.56;;;-2.27;85.48
59767;BME280;46248;58.364;25.582;2023-03-01T00:04:32;101261.72;;;-2.28;86.54
59767;BME280;46248;58.364;25.582;2023-03-01T00:07:59;101254.88;;;-2.29;86.49
59767;BME280;46248;58.364;25.582;2023-03-01T00:11:27;101253.94;;;-2.33;87.25
59767;BME280;46248;58.364;25.582;2023-03-01T00:14:54;101261.63;;;-2.33;87.47
59767;BME280;46248;58.364;25.582;2023-03-01T00:18:23;101260.81;;;-2.32;87.87
59767;BME280;46248;58.364;25.582;2023-03-01T00:21:49;101261.63;;;-2.33;88.69
59767;BME280;46248;58.364;25.582;2023-03-01T00:25:15;101252.19;;;-2.37;89.12
59767;BME280;46248;58.364;25.582;2023-03-01T00:28:41;101265.03;;;-2.36;88.88
59767;BME280;46248;58.364;25.582;2023-03-01T00:32:14;101258.97;;;-2.39;89.53
59767;BME280;46248;58.364;25.582;2023-03-01T00:35:42;101266.69;;;-2.39;89.41
59767;BME280;46248;58.364;25.582;2023-03-01T00:39:11;101276.91;;;-2.42;89.81
59767;BME280;46248;58.364;25.582;2023-03-01T00:42:38;101258.00;;;-2.50;90.58
59767;BME280;46248;58.364;25.582;2023-03-01T00:46:05;101268.25;;;-2.49;90.64
59767;BME280;46248;58.364;25.582;2023-03-01T00:49:30;101248.28;;;-2.71;90.95
59767;BME280;46248;58.364;25.582;2023-03-01T00:52:58;101280.19;;;-2.54;91.46
59767;BME280;46248;58.364;25.582;2023-03-01T00:56:22;101276.72;;;-2.56;91.29
59767;BME280;46248;58.364;25.582;2023-03-01T00:59:48;101273.25;;;-2.60;92.06
59767;BME280;46248;58.364;25.582;2023-03-01T01:03:15;101268.97;;;-2.59;91.83
59767;BME280;46248;58.364;25.582;2023-03-01T01:06:42;101272.41;;;-2.59;92.36
59767;BME280;46248;58.364;25.582;2023-03-01T01:10:13;101263.81;;;-2.61;92.16
59767;BME280;46248;58.364;25.582;2023-03-01T01:13:39;101268.06;;;-2.63;92.35
59767;BME280;46248;58.364;25.582;2023-03-01T01:17:05;101257.75;;;-2.69;92.83
59767;BME280;46248;58.364;25.582;2023-03-01T01:20:30;101254.31;;;-2.66;93.02
59767;BME280;46248;58.364;25.582;2023-03-01T01:23:55;101263.75;;;-2.65;93.45
59767;BME280;46248;58.364;25.582;2023-03-01T01:27:22;101264.63;;;-2.65;93.46
59767;BME280;46248;58.364;25.582;2023-03-01T01:30:48;101249.16;;;-2.69;93.64
59767;BME280;46248;58.364;25.582;2023-03-01T01:34:15;101260.31;;;-2.67;93.72
59767;BME280;46248;58.364;25.582;2023-03-01T01:37:40;101260.34;;;-2.64;93.77
59767;BME280;46248;58.364;25.582;2023-03-01T01:41:05;101250.88;;;-2.70;94.15
59767;BME280;46248;58.364;25.582;2023-03-01T01:44:34;101268.13;;;-2.60;93.93
59767;BME280;46248;58.364;25.582;2023-03-01T01:48:03;101234.53;;;-2.78;93.92
59767;BME280;46248;58.364;25.582;2023-03-01T01:51:32;101269.88;;;-2.57;93.83
59767;BME280;46248;58.364;25.582;2023-03-01T01:55:04;101268.16;;;-2.57;93.65
59767;BME280;46248;58.364;25.582;2023-03-01T01:58:31;101268.19;;;-2.55;93.33
59767;BME280;46248;58.364;25.582;2023-03-01T02:02:03;101265.59;;;-2.57;93.83
59767;BME280;46248;58.364;25.582;2023-03-01T02:05:34;101258.72;;;-2.58;93.83
59767;BME280;46248;58.364;25.582;2023-03-01T02:09:05;101260.47;;;-2.57;93.40
59767;BME280;46248;58.364;25.582;2023-03-01T02:12:30;101263.00;;;-2.58;93.65
59767;BME280;46248;58.364;25.582;2023-03-01T02:15:55;101260.44;;;-2.58;93.02
59767;BME280;46248;58.364;25.582;2023-03-01T02:19:35;101260.34;;;-2.64;93.64
59767;BME280;46248;58.364;25.582;2023-03-01T02:23:05;101257.75;;;-2.67;93.37
59767;BME280;46248;58.364;25.582;2023-03-01T02:26:35;101264.63;;;-2.63;92.86
59767;BME280;46248;58.364;25.582;2023-03-01T02:30:08;101266.34;;;-2.64;92.87
59767;BME280;46248;58.364;25.582;2023-03-01T02:33:36;101279.09;;;-2.67;93.10
59767;BME280;46248;58.364;25.582;2023-03-01T02:37:08;101274.78;;;-2.69;92.91
59767;BME280;46248;58.364;25.582;2023-03-01T02:40:36;101255.81;;;-2.82;92.34
59767;BME280;46248;58.364;25.582;2023-03-01T02:44:02;101273.03;;;-2.73;92.75
59767;BME280;46248;58.364;25.582;2023-03-01T02:47:32;101266.09;;;-2.79;92.65
59767;BME280;46248;58.364;25.582;2023-03-01T02:51:04;101272.84;;;-2.86;92.54
59767;BME280;46248;58.364;25.582;2023-03-01T02:54:36;101247.75;;;-3.07;92.71
59767;BME280;46248;58.364;25.582;2023-03-01T02:58:05;101278.66;;;-2.96;92.56
59767;BME280;46248;58.364;25.582;2023-03-01T03:01:30;101281.94;;;-3.03;92.60
59767;BME280;46248;58.364;25.582;2023-03-01T03:05:00;101281.91;;;-3.06;92.72
59767;BME280;46248;58.364;25.582;2023-03-01T03:08:26;101278.41;;;-3.11;92.55
59767;BME280;46248;58.364;25.582;2023-03-01T03:11:51;101280.94;;;-3.14;92.60
59767;BME280;46248;58.364;25.582;2023-03-01T03:15:16;101292.84;;;-3.16;92.63
59767;BME280;46248;58.364;25.582;2023-03-01T03:18:43;101286.81;;;-3.20;92.71
59767;BME280;46248;58.364;25.582;2023-03-01T03:22:10;101290.97;;;-3.25;92.40
59767;BME280;46248;58.364;25.582;2023-03-01T03:25:36;101291.81;;;-3.26;92.62
59767;BME280;46248;58.364;25.582;2023-03-01T03:29:01;101287.41;;;-3.33;92.51
59767;BME280;46248;58.364;25.582;2023-03-01T03:32:27;101286.50;;;-3.38;92.34
59767;BME280;46248;58.364;25.582;2023-03-01T03:35:51;101298.34;;;-3.42;92.83
59767;BME280;46248;58.364;25.582;2023-03-01T03:39:18;101290.59;;;-3.45;92.82
59767;BME280;46248;58.364;25.582;2023-03-01T03:42:42;101299.94;;;-3.49;92.66
59767;BME280;46248;58.364;25.582;2023-03-01T03:46:08;101296.41;;;-3.55;92.71
59767;BME280;46248;58.364;25.582;2023-03-01T03:49:34;101303.16;;;-3.59;92.85
59767;BME280;46248;58.364;25.582;2023-03-01T03:53:01;101297.03;;;-3.67;92.58
59767;BME280;46248;58.364;25.582;2023-03-01T03:56:41;101305.50;;;-3.70;93.09
59767;BME280;46248;58.364;25.582;2023-03-01T04:00:08;101294.41;;;-3.72;92.72
59767;BME280;46248;58.364;25.582;2023-03-01T04:03:35;101293.38;;;-3.78;92.78
59767;BME280;46248;58.364;25.582;2023-03-01T04:07:00;101283.88;;;-3.87;92.88
59767;BME280;46248;58.364;25.582;2023-03-01T04:10:24;101286.31;;;-3.92;92.59
59767;BME280;46248;58.364;25.582;2023-03-01T04:13:53;101280.22;;;-3.98;93.28
59767;BME280;46248;58.364;25.582;2023-03-01T04:17:18;101279.25;;;-4.03;93.13
59767;BME280;46248;58.364;25.582;2023-03-01T04:20:43;101260.19;;;-4.18;93.51
59767;BME280;46248;58.364;25.582;2023-03-01T04:24:07;101270.41;;;-4.18;93.49
59767;BME280;46248;58.364;25.582;2023-03-01T04:27:33;101271.25;;;-4.20;93.97
59767;BME280;46248;58.364;25.582;2023-03-01T04:31:07;101273.75;;;-4.22;93.90
59767;BME280;46248;58.364;25.582;2023-03-01T04:34:38;101270.22;;;-4.28;93.89
59767;BME280;46248;58.364;25.582;2023-03-01T04:38:03;101254.56;;;-4.42;93.82
59767;BME280;46248;58.364;25.582;2023-03-01T04:41:28;101277.69;;;-4.38;94.63
59767;BME280;46248;58.364;25.582;2023-03-01T04:44:53;101273.38;;;-4.40;94.55
59767;BME280;46248;58.364;25.582;2023-03-01T04:48:20;101281.81;;;-4.43;94.12
59767;BME280;46248;58.364;25.582;2023-03-01T04:51:45;101284.25;;;-4.49;94.93
59767;BME280;46248;58.364;25.582;2023-03-01T04:55:10;101288.44;;;-4.52;94.60
59767;BME280;46248;58.364;25.582;2023-03-01T04:58:35;101283.25;;;-4.55;94.47
59767;BME280;46248;58.364;25.582;2023-03-01T05:02:00;101251.97;;;-4.83;94.59
59767;BME280;46248;58.364;25.582;2023-03-01T05:05:27;101293.19;;;-4.68;94.48
59767;BME280;46248;58.364;25.582;2023-03-01T05:08:52;101289.59;;;-4.76;94.54
59767;BME280;46248;58.364;25.582;2023-03-01T05:12:17;101294.69;;;-4.76;95.32
59767;BME280;46248;58.364;25.582;2023-03-01T05:15:41;101300.66;;;-4.77;95.54
59767;BME280;46248;58.364;25.582;2023-03-01T05:19:06;101285.09;;;-4.86;95.48
59767;BME280;46248;58.364;25.582;2023-03-01T05:22:36;101298.00;;;-4.80;94.69
59767;BME280;46248;58.364;25.582;2023-03-01T05:26:01;101294.53;;;-4.84;94.72
59767;BME280;46248;58.364;25.582;2023-03-01T05:29:29;101291.00;;;-4.87;94.37
59767;BME280;46248;58.364;25.582;2023-03-01T05:32:57;101277.88;;;-5.02;94.86
59767;BME280;46248;58.364;25.582;2023-03-01T05:36:21;101285.59;;;-4.99;95.10
59767;BME280;46248;58.364;25.582;2023-03-01T05:39:46;101301.91;;;-4.96;95.33
59767;BME280;46248;58.364;25.582;2023-03-01T05:43:13;101306.25;;;-4.92;95.40
59767;BME280;46248;58.364;25.582;2023-03-01T05:46:40;101305.31;;;-4.95;95.56
59767;BME280;46248;58.364;25.582;2023-03-01T05:50:06;101309.56;;;-4.96;95.60
59767;BME280;46248;58.364;25.582;2023-03-01T05:53:31;101301.97;;;-4.93;96.44
59767;BME280;46248;58.364;25.582;2023-03-01T05:56:56;101291.78;;;-4.91;96.69
59767;BME280;46248;58.364;25.582;2023-03-01T06:00:21;101286.66;;;-4.91;97.04
59767;BME280;46248;58.364;25.582;2023-03-01T06:03:46;101298.00;;;-4.80;98.23
59767;BME280;46248;58.364;25.582;2023-03-01T06:07:10;101287.09;;;-4.74;98.09
59767;BME280;46248;58.364;25.582;2023-03-01T06:10:35;101286.50;;;-4.63;98.92
59767;BME280;46248;58.364;25.582;2023-03-01T06:14:02;101272.91;;;-4.60;99.18
59767;BME280;46248;58.364;25.582;2023-03-01T06:17:29;101292.09;;;-4.41;98.97
59767;BME280;46248;58.364;25.582;2023-03-01T06:20:55;101290.56;;;-4.33;99.03
59767;BME280;46248;58.364;25.582;2023-03-01T06:24:20;101293.22;;;-4.28;98.84
59767;BME280;46248;58.364;25.582;2023-03-01T06:27:45;101299.47;;;-4.16;98.73
59767;BME280;46248;58.364;25.582;2023-03-01T06:31:11;101309.88;;;-4.06;98.38
59767;BME280;46248;58.364;25.582;2023-03-01T06:34:38;101311.75;;;-3.99;98.58
59767;BME280;46248;58.364;25.582;2023-03-01T06:38:02;101311.00;;;-3.94;98.51
59767;BME280;46248;58.364;25.582;2023-03-01T06:41:27;101324.09;;;-3.80;98.68
59767;BME280;46248;58.364;25.582;2023-03-01T06:44:51;101329.44;;;-3.67;98.68
59767;BME280;46248;58.364;25.582;2023-03-01T06:48:17;101322.00;;;-3.57;98.31
59767;BME280;46248;58.364;25.582;2023-03-01T06:51:42;101313.59;;;-3.48;98.27
59767;BME280;46248;58.364;25.582;2023-03-01T06:55:07;101322.34;;;-3.37;97.86
59767;BME280;46248;58.364;25.582;2023-03-01T06:58:32;101319.97;;;-3.28;97.80
59767;BME280;46248;58.364;25.582;2023-03-01T07:01:56;101323.56;;;-3.16;97.26
59767;BME280;46248;58.364;25.582;2023-03-01T07:05:23;101308.38;;;-3.06;97.20
59767;BME280;46248;58.364;25.582;2023-03-01T07:08:48;101309.47;;;-2.91;97.10
59767;BME280;46248;58.364;25.582;2023-03-01T07:12:14;101306.31;;;-2.77;96.22
59767;BME280;46248;58.364;25.582;2023-03-01T07:15:40;101304.03;;;-2.58;96.19
59767;BME280;46248;58.364;25.582;2023-03-01T07:19:06;101301.72;;;-2.40;95.36
59767;BME280;46248;58.364;25.582;2023-03-01T07:22:33;101297.66;;;-2.25;95.27
59767;BME280;46248;58.364;25.582;2023-03-01T07:25:58;101297.94;;;-2.05;94.16
59767;BME280;46248;58.364;25.582;2023-03-01T07:29:23;101288.59;;;-1.99;93.21
59767;BME280;46248;58.364;25.582;2023-03-01T07:32:47;101311.00;;;-1.87;92.29
59767;BME280;46248;58.364;25.582;2023-03-01T07:36:11;101291.28;;;-1.88;92.38
59767;BME280;46248;58.364;25.582;2023-03-01T07:39:37;101304.31;;;-1.73;91.58
59767;BME280;46248;58.364;25.582;2023-03-01T07:43:01;101304.41;;;-1.65;91.23
59767;BME280;46248;58.364;25.582;2023-03-01T07:46:26;101295.91;;;-1.59;90.65
59767;BME280;46248;58.364;25.582;2023-03-01T07:49:50;101292.56;;;-1.52;90.90
59767;BME280;46248;58.364;25.582;2023-03-01T07:53:14;101283.25;;;-1.40;89.61
59767;BME280;46248;58.364;25.582;2023-03-01T07:56:40;101280.78;;;-1.30;90.44
59767;BME280;46248;58.364;25.582;2023-03-01T08:00:05;101283.53;;;-1.13;88.07
59767;BME280;46248;58.364;25.582;2023-03-01T08:03:29;101291.28;;;-1.07;88.37
59767;BME280;46248;58.364;25.582;2023-03-01T08:06:53;101286.25;;;-0.95;88.01
59767;BME280;46248;58.364;25.582;2023-03-01T08:10:18;101285.50;;;-0.80;87.27
59767;BME280;46248;58.364;25.582;2023-03-01T08:13:47;101289.84;;;-0.70;85.55
59767;BME280;46248;58.364;25.582;2023-03-01T08:17:14;101289.91;;;-0.64;85.25
59767;BME280;46248;58.364;25.582;2023-03-01T08:20:39;101286.59;;;-0.51;85.78
59767;BME280;46248;58.364;25.582;2023-03-01T08:24:04;101285.84;;;-0.33;85.66
59767;BME280;46248;58.364;25.582;2023-03-01T08:27:29;101273.88;;;-0.20;84.55
59767;BME280;46248;58.364;25.582;2023-03-01T08:30:55;101274.81;;;-0.09;83.75
59767;BME280;46248;58.364;25.582;2023-03-01T08:34:20;101279.13;;;-0.02;83.06
59767;BME280;46248;58.364;25.582;2023-03-01T08:37:44;101280.00;;;0.05;83.24
59767;BME280;46248;58.364;25.582;2023-03-01T08:41:09;101274.03;;;0.09;82.41
59767;BME280;46248;58.364;25.582;2023-03-01T08:44:34;101278.31;;;0.18;81.09
59767;BME280;46248;58.364;25.582;2023-03-01T08:48:01;101262.03;;;0.20;80.84
59767;BME280;46248;58.364;25.582;2023-03-01T08:51:26;101280.97;;;0.32;79.97
59767;BME280;46248;58.364;25.582;2023-03-01T08:54:51;101276.69;;;0.40;79.06
59767;BME280;46248;58.364;25.582;2023-03-01T08:58:16;101279.28;;;0.43;79.11
59767;BME280;46248;58.364;25.582;2023-03-01T09:01:40;101277.56;;;0.48;77.84
59767;BME280;46248;58.364;25.582;2023-03-01T09:05:08;101290.44;;;0.54;78.51
59767;BME280;46248;58.364;25.582;2023-03-01T09:08:35;101273.31;;;0.55;78.54
59767;BME280;46248;58.364;25.582;2023-03-01T09:11:59;101275.03;;;0.71;78.23
59767;BME280;46248;58.364;25.582;2023-03-01T09:15:23;101278.50;;;0.79;77.07
59767;BME280;46248;58.364;25.582;2023-03-01T09:18:49;101281.06;;;0.87;77.62
59767;BME280;46248;58.364;25.582;2023-03-01T09:22:16;101273.31;;;0.93;75.90
59767;BME280;46248;58.364;25.582;2023-03-01T09:25:40;101263.88;;;0.90;75.36
59767;BME280;46248;58.364;25.582;2023-03-01T09:29:03;101271.59;;;1.00;74.69
59767;BME280;46248;58.364;25.582;2023-03-01T09:32:28;101247.56;;;0.95;74.04
59767;BME280;46248;58.364;25.582;2023-03-01T09:35:57;101254.41;;;1.14;73.78
59767;BME280;46248;58.364;25.582;2023-03-01T09:39:23;101257.00;;;1.25;73.92
59767;BME280;46248;58.364;25.582;2023-03-01T09:42:53;101253.53;;;1.35;71.00
59767;BME280;46248;58.364;25.582;2023-03-01T09:46:17;101243.22;;;1.35;70.08
59767;BME280;46248;58.364;25.582;2023-03-01T09:49:43;101244.91;;;1.45;71.80
59767;BME280;46248;58.364;25.582;2023-03-01T09:53:14;101236.31;;;1.52;71.86
59767;BME280;46248;58.364;25.582;2023-03-01T09:56:44;101228.53;;;1.62;71.80
59767;BME280;46248;58.364;25.582;2023-03-01T10:00:19;101225.06;;;1.69;70.84
59767;BME280;46248;58.364;25.582;2023-03-01T10:03:59;101213.03;;;1.68;70.18
59767;BME280;46248;58.364;25.582;2023-03-01T10:07:36;101206.09;;;1.74;70.17
59767;BME280;46248;58.364;25.582;2023-03-01T10:11:04;101205.22;;;1.80;69.87
59767;BME280;46248;58.364;25.582;2023-03-01T10:14:33;101194.88;;;1.84;69.54
59767;BME280;46248;58.364;25.582;2023-03-01T10:18:01;101182.81;;;1.91;69.76
59767;BME280;46248;58.364;25.582;2023-03-01T10:21:29;101170.72;;;1.93;70.36
59767;BME280;46248;58.364;25.582;2023-03-01T10:24:57;101178.44;;;2.01;68.43
59767;BME280;46248;58.364;25.582;2023-03-01T10:28:26;101166.34;;;2.09;68.06
59767;BME280;46248;58.364;25.582;2023-03-01T10:31:56;101166.28;;;2.21;67.26
59767;BME280;46248;58.364;25.582;2023-03-01T10:35:22;101163.59;;;2.37;68.25
59767;BME280;46248;58.364;25.582;2023-03-01T10:38:49;101160.81;;;2.61;68.13
59767;BME280;46248;58.364;25.582;2023-03-01T10:42:25;101159.81;;;2.74;66.83
59767;BME280;46248;58.364;25.582;2023-03-01T10:45:50;101154.59;;;2.81;66.51
59767;BME280;46248;58.364;25.582;2023-03-01T10:49:19;101145.94;;;2.83;66.53
59767;BME280;46248;58.364;25.582;2023-03-01T10:52:56;101142.47;;;2.84;66.42
59767;BME280;46248;58.364;25.582;2023-03-01T10:56:21;101146.81;;;2.84;66.19
59767;BME280;46248;58.364;25.582;2023-03-01T11:04:21;101141.66;;;2.82;65.40
59767;BME280;46248;58.364;25.582;2023-03-01T11:07:49;101139.00;;;2.87;66.01
59767;BME280;46248;58.364;25.582;2023-03-01T11:11:29;101135.56;;;2.91;65.02
59767;BME280;46248;58.364;25.582;2023-03-01T11:14:55;101134.69;;;2.89;65.35
59767;BME280;46248;58.364;25.582;2023-03-01T11:18:20;101138.13;;;2.91;66.13
59767;BME280;46248;58.364;25.582;2023-03-01T11:22:07;101125.97;;;2.99;64.12
59767;BME280;46248;58.364;25.582;2023-03-01T11:25:35;101124.13;;;3.12;66.21
59767;BME280;46248;58.364;25.582;2023-03-01T11:29:05;101124.03;;;3.21;64.88
59767;BME280;46248;58.364;25.582;2023-03-01T11:32:35;101108.44;;;3.26;64.28
59767;BME280;46248;58.364;25.582;2023-03-01T11:36:06;101122.00;;;3.46;64.85
59767;BME280;46248;58.364;25.582;2023-03-01T11:39:37;101084.09;;;3.42;64.08
59767;BME280;46248;58.364;25.582;2023-03-01T11:43:09;101106.31;;;3.58;64.01
59767;BME280;46248;58.364;25.582;2023-03-01T11:46:58;101088.25;;;3.52;63.05
59767;BME280;46248;58.364;25.582;2023-03-01T11:50:32;101104.59;;;3.57;62.05
59767;BME280;46248;58.364;25.582;2023-03-01T11:54:09;101089.97;;;3.53;63.38
59767;BME280;46248;58.364;25.582;2023-03-01T11:57:49;101082.16;;;3.56;63.49
59767;BME280;46248;58.364;25.582;2023-03-01T12:01:32;101090.72;;;3.60;64.07
59767;BME280;46248;58.364;25.582;2023-03-01T12:05:20;101083.88;;;3.56;64.46
59767;BME280;46248;58.364;25.582;2023-03-01T12:08:55;101080.44;;;3.55;63.19
59767;BME280;46248;58.364;25.582;2023-03-01T12:12:33;101077.09;;;3.47;62.72
59767;BME280;46248;58.364;25.582;2023-03-01T12:16:20;101084.88;;;3.47;63.81
59767;BME280;46248;58.364;25.582;2023-03-01T12:20:09;101078.03;;;3.43;63.06
59767;BME280;46248;58.364;25.582;2023-03-01T12:27:57;101072.84;;;3.41;63.29
59767;BME280;46248;58.364;25.582;2023-03-01T12:32:06;101064.22;;;3.42;63.57
59767;BME280;46248;58.364;25.582;2023-03-01T12:36:07;101055.53;;;3.47;63.29
59767;BME280;46248;58.364;25.582;2023-03-01T12:39:42;101053.84;;;3.44;64.50
59767;BME280;46248;58.364;25.582;2023-03-01T12:43:21;101046.06;;;3.44;64.60
59767;BME280;46248;58.364;25.582;2023-03-01T12:46:55;101040.00;;;3.47;64.97
59767;BME280;46248;58.364;25.582;2023-03-01T12:50:24;101040.00;;;3.47;64.81
59767;BME280;46248;58.364;25.582;2023-03-01T12:53:50;101031.34;;;3.49;65.64
59767;BME280;46248;58.364;25.582;2023-03-01T12:57:18;101024.53;;;3.42;66.11
59767;BME280;46248;58.364;25.582;2023-03-01T13:00:53;101024.56;;;3.40;66.97
59767;BME280;46248;58.364;25.582;2023-03-01T13:04:36;101020.25;;;3.39;67.14
59767;BME280;46248;58.364;25.582;2023-03-01T13:08:08;101022.06;;;3.33;67.86
59767;BME280;46248;58.364;25.582;2023-03-01T13:11:36;101022.16;;;3.25;68.18
59767;BME280;46248;58.364;25.582;2023-03-01T13:15:03;101017.00;;;3.24;68.01
59767;BME280;46248;58.364;25.582;2023-03-01T13:18:32;101019.59;;;3.24;68.88
59767;BME280;46248;58.364;25.582;2023-03-01T13:21:56;101015.28;;;3.22;68.88
59767;BME280;46248;58.364;25.582;2023-03-01T13:25:21;101013.66;;;3.15;69.29
59767;BME280;46248;58.364;25.582;2023-03-01T13:28:56;101001.66;;;3.08;69.87
59767;BME280;46248;58.364;25.582;2023-03-01T13:32:23;101006.84;;;3.10;69.88
59767;BME280;46248;58.364;25.582;2023-03-01T13:36:03;100993.16;;;3.00;70.36
59767;BME280;46248;58.364;25.582;2023-03-01T13:39:38;100993.22;;;2.97;70.78
59767;BME280;46248;58.364;25.582;2023-03-01T13:43:28;100993.22;;;2.97;71.06
59767;BME280;46248;58.364;25.582;2023-03-01T13:46:53;100980.34;;;2.91;71.68
59767;BME280;46248;58.364;25.582;2023-03-01T13:50:23;100997.50;;;2.98;72.19
59767;BME280;46248;58.364;25.582;2023-03-01T13:53:47;100989.84;;;2.89;71.97
59767;BME280;46248;58.364;25.582;2023-03-01T13:57:19;100997.53;;;2.95;72.03
59767;BME280;46248;58.364;25.582;2023-03-01T14:00:46;100983.91;;;2.81;72.00
59767;BME280;46248;58.364;25.582;2023-03-01T14:04:20;100988.25;;;2.77;72.98
59767;BME280;46248;58.364;25.582;2023-03-01T14:07:51;100996.03;;;2.79;73.72
59767;BME280;46248;58.364;25.582;2023-03-01T14:15:04;100988.44;;;2.63;75.59
59767;BME280;46248;58.364;25.582;2023-03-01T14:18:36;100978.19;;;2.52;76.13
59767;BME280;46248;58.364;25.582;2023-03-01T14:22:21;100967.06;;;2.46;76.14
59767;BME280;46248;58.364;25.582;2023-03-01T14:25:48;100970.47;;;2.49;76.87
59767;BME280;46248;58.364;25.582;2023-03-01T14:29:32;100967.03;;;2.47;77.57
59767;BME280;46248;58.364;25.582;2023-03-01T14:32:57;100960.13;;;2.48;77.01
59767;BME280;46248;58.364;25.582;2023-03-01T14:36:26;100952.34;;;2.52;77.91
59767;BME280;46248;58.364;25.582;2023-03-01T14:39:50;100953.19;;;2.55;77.87
59767;BME280;46248;58.364;25.582;2023-03-01T14:43:20;100951.50;;;2.52;77.83
59767;BME280;46248;58.364;25.582;2023-03-01T14:46:46;100956.63;;;2.55;78.31
59767;BME280;46248;58.364;25.582;2023-03-01T14:50:18;100917.31;;;2.24;79.01
59767;BME280;46248;58.364;25.582;2023-03-01T14:53:44;100946.47;;;2.38;78.90
59767;BME280;46248;58.364;25.582;2023-03-01T14:57:15;100941.38;;;2.34;79.88
59767;BME280;46248;58.364;25.582;2023-03-01T15:00:51;100914.84;;;2.15;80.57
59767;BME280;46248;58.364;25.582;2023-03-01T15:04:16;100942.25;;;2.31;80.75
59767;BME280;46248;58.364;25.582;2023-03-01T15:07:43;100931.19;;;2.18;81.02
59767;BME280;46248;58.364;25.582;2023-03-01T15:11:22;100940.59;;;2.22;81.59
59767;BME280;46248;58.364;25.582;2023-03-01T15:14:46;100942.34;;;2.22;81.45
59767;BME280;46248;58.364;25.582;2023-03-01T15:18:26;100931.16;;;2.20;82.19
59767;BME280;46248;58.364;25.582;2023-03-01T15:21:50;100925.22;;;2.10;82.34
59767;BME280;46248;58.364;25.582;2023-03-01T15:25:15;100932.97;;;2.10;83.10
59767;BME280;46248;58.364;25.582;2023-03-01T15:28:48;100933.84;;;2.11;83.12
59767;BME280;46248;58.364;25.582;2023-03-01T15:32:25;100908.94;;;2.03;83.45
59767;BME280;46248;58.364;25.582;2023-03-01T15:35:51;100915.84;;;2.01;84.03
59767;BME280;46248;58.364;25.582;2023-03-01T15:39:31;100915.00;;;2.01;84.61
59767;BME280;46248;58.364;25.582;2023-03-01T15:42:59;100921.94;;;1.93;84.66
59767;BME280;46248;58.364;25.582;2023-03-01T15:46:26;100926.25;;;1.94;84.74
59767;BME280;46248;58.364;25.582;2023-03-01T15:49:53;100921.13;;;1.91;85.30
59767;BME280;46248;58.364;25.582;2023-03-01T15:53:17;100909.13;;;1.83;85.39
59767;BME280;46248;58.364;25.582;2023-03-01T15:56:40;100895.44;;;1.74;86.07
59767;BME280;46248;58.364;25.582;2023-03-01T16:00:06;100887.75;;;1.68;85.85
59767;BME280;46248;58.364;25.582;2023-03-01T16:03:36;100899.81;;;1.66;86.47
59767;BME280;46248;58.364;25.582;2023-03-01T16:07:00;100897.28;;;1.59;86.97
59767;BME280;46248;58.364;25.582;2023-03-01T16:10:24;100904.25;;;1.51;87.80
59767;BME280;46248;58.364;25.582;2023-03-01T16:13:48;100889.63;;;1.47;88.23
59767;BME280;46248;58.364;25.582;2023-03-01T16:17:11;100894.81;;;1.46;88.08
59767;BME280;46248;58.364;25.582;2023-03-01T16:20:36;100903.41;;;1.45;88.71
59767;BME280;46248;58.364;25.582;2023-03-01T16:24:00;100906.06;;;1.37;89.31
59767;BME280;46248;58.364;25.582;2023-03-01T16:27:23;100915.50;;;1.43;89.22
59767;BME280;46248;58.364;25.582;2023-03-01T16:30:47;100918.97;;;1.37;89.48
59767;BME280;46248;58.364;25.582;2023-03-01T16:34:12;100919.84;;;1.34;89.67
59767;BME280;46248;58.364;25.582;2023-03-01T16:37:38;100914.72;;;1.28;89.87
59767;BME280;46248;58.364;25.582;2023-03-01T16:41:01;100915.63;;;1.23;90.45
59767;BME280;46248;58.364;25.582;2023-03-01T16:44:25;100914.81;;;1.16;90.72
59767;BME280;46248;58.364;25.582;2023-03-01T16:47:50;100901.97;;;1.07;91.48
59767;BME280;46248;58.364;25.582;2023-03-01T16:51:16;100907.13;;;1.07;91.95
59767;BME280;46248;58.364;25.582;2023-03-01T16:54:40;100907.97;;;1.06;91.42
59767;BME280;46248;58.364;25.582;2023-03-01T16:58:04;100916.63;;;1.00;92.42
59767;BME280;46248;58.364;25.582;2023-03-01T17:01:27;100923.47;;;1.00;92.31
59767;BME280;46248;58.364;25.582;2023-03-01T17:04:59;100917.53;;;0.91;92.62
59767;BME280;46248;58.364;25.582;2023-03-01T17:08:22;100930.41;;;0.91;93.09
59767;BME280;46248;58.364;25.582;2023-03-01T17:11:48;100926.16;;;0.86;93.29
59767;BME280;46248;58.364;25.582;2023-03-01T17:15:11;100938.16;;;0.87;94.14
59767;BME280;46248;58.364;25.582;2023-03-01T17:18:35;100916.75;;;0.73;93.48
59767;BME280;46248;58.364;25.582;2023-03-01T17:22:00;100951.03;;;0.90;93.90
59767;BME280;46248;58.364;25.582;2023-03-01T17:25:24;100941.59;;;0.89;93.81
59767;BME280;46248;58.364;25.582;2023-03-01T17:28:49;100957.03;;;0.97;93.33
59767;BME280;46248;58.364;25.582;2023-03-01T17:32:15;100950.22;;;0.88;93.46
59767;BME280;46248;58.364;25.582;2023-03-01T17:35:39;100970.78;;;0.99;93.38
59767;BME280;46248;58.364;25.582;2023-03-01T17:39:04;100972.47;;;1.00;93.59
59767;BME280;46248;58.364;25.582;2023-03-01T17:42:27;100966.50;;;0.93;94.33
59767;BME280;46248;58.364;25.582;2023-03-01T17:45:53;100975.06;;;1.00;94.11
59767;BME280;46248;58.364;25.582;2023-03-01T17:49:17;100984.53;;;1.01;94.35
59767;BME280;46248;58.364;25.582;2023-03-01T17:52:40;100987.94;;;1.04;94.28
59767;BME280;46248;58.364;25.582;2023-03-01T17:56:05;100979.34;;;1.02;94.39
59767;BME280;46248;58.364;25.582;2023-03-01T17:59:29;100984.50;;;1.05;94.54
59767;BME280;46248;58.364;25.582;2023-03-01T18:02:55;100977.59;;;1.07;94.13
59767;BME280;46248;58.364;25.582;2023-03-01T18:06:20;100961.28;;;1.02;94.57
59767;BME280;46248;58.364;25.582;2023-03-01T18:09:43;100945.88;;;0.93;94.96
59767;BME280;46248;58.364;25.582;2023-03-01T18:13:08;100962.16;;;1.01;95.28